createdAt,value
2019-03-16T00:01:16.913Z,98153.83
2019-03-16T00:03:46.650Z,98152.61
2019-03-16T00:06:17.391Z,98149.04
2019-03-16T00:08:47.066Z,98156.47
2019-03-16T00:11:17.051Z,98166.98
2019-03-16T00:13:47.226Z,98172.95
2019-03-16T00:16:17.151Z,98157.94
2019-03-16T00:18:46.766Z,98161.50
2019-03-16T00:21:16.747Z,98174.53
2019-03-16T00:23:46.432Z,98167.47
2019-03-16T00:26:16.221Z,98183.34
2019-03-16T00:28:45.833Z,98173.84
2019-03-16T00:31:15.490Z,98184.52
2019-03-16T00:33:48.114Z,98193.32
2019-03-16T00:36:17.740Z,98182.69
2019-03-16T00:38:47.449Z,98178.02
2019-03-16T00:41:17.123Z,98182.69
2019-03-16T00:43:46.734Z,98182.00
2019-03-16T00:46:16.681Z,98188.53
2019-03-16T00:48:46.655Z,98191.77
2019-03-16T00:51:16.412Z,98189.50
2019-03-16T00:53:46.052Z,98190.67
2019-03-16T00:56:15.727Z,98203.76
2019-03-16T08:32:56.294Z,99620.16
2019-03-16T08:35:27.129Z,99632.03
2019-03-16T08:37:56.753Z,99635.31
2019-03-16T08:40:26.490Z,99636.95
2019-03-16T08:42:56.772Z,99651.08
2019-03-16T08:45:26.388Z,99654.34
2019-03-16T08:47:56.058Z,99681.70
2019-03-16T08:50:26.689Z,99673.08
2019-03-16T08:52:57.111Z,99680.54
2019-03-16T08:55:27.289Z,99674.98
2019-03-16T08:58:05.646Z,99701.26
2019-03-16T09:00:28.311Z,99693.45
2019-03-16T09:02:59.368Z,99704.64
2019-03-16T09:05:28.976Z,99699.38
2019-03-16T09:07:58.596Z,99708.62
2019-03-16T09:10:28.316Z,99704.95
2019-03-16T09:12:57.944Z,99712.88
2019-03-16T09:15:27.830Z,99714.36
2019-03-16T09:17:57.469Z,99713.30
2019-03-16T09:20:27.072Z,99718.48
2019-03-16T09:22:56.685Z,99756.95
2019-03-16T09:25:26.779Z,99730.96
2019-03-16T09:27:56.618Z,99740.70
2019-03-16T09:30:26.344Z,99735.73
2019-03-16T09:32:56.236Z,99734.92
2019-03-16T09:35:25.869Z,99753.51
2019-03-16T09:37:55.483Z,99756.95
2019-03-16T09:40:25.182Z,99759.77
2019-03-16T09:42:54.790Z,99760.81
2019-03-16T09:45:24.703Z,99767.92
2019-03-16T09:47:54.439Z,99765.92
2019-03-16T09:50:24.146Z,99774.05
2019-03-16T09:52:53.935Z,99780.72
2019-03-16T09:55:23.955Z,99762.25
2019-03-16T09:57:53.691Z,99758.83
2019-03-16T10:00:23.627Z,99769.11
2019-03-16T10:02:53.278Z,99765.42
2019-03-16T10:05:22.906Z,99769.70
2019-03-16T10:07:52.516Z,99773.30
2019-03-16T10:10:22.184Z,99766.59
2019-03-16T10:12:51.822Z,99784.46
2019-03-16T10:15:21.774Z,99772.92
2019-03-16T10:17:51.441Z,99787.06
2019-03-16T10:20:21.041Z,99778.91
2019-03-16T10:22:50.692Z,99791.00
2019-03-16T10:25:21.854Z,99801.98
2019-03-16T10:27:51.483Z,99791.12
2019-03-16T10:30:21.093Z,99805.52
2019-03-16T10:32:52.298Z,99812.48
2019-03-16T10:35:22.036Z,99798.04
2019-03-16T10:37:52.603Z,99798.66
2019-03-16T10:40:22.381Z,99794.01
2019-03-16T10:42:53.567Z,99806.27
2019-03-16T10:45:23.245Z,99816.73
2019-03-16T10:47:53.835Z,99816.57
2019-03-16T10:50:23.822Z,99824.31
2019-03-16T10:52:53.929Z,99819.59
2019-03-16T10:55:23.945Z,99823.45
2019-03-16T10:57:54.825Z,99833.72
2019-03-16T11:00:24.457Z,99830.05
2019-03-16T11:02:55.391Z,99841.54
2019-03-16T11:05:25.384Z,99845.41
2019-03-16T11:07:54.992Z,99846.80
2019-03-16T11:10:24.648Z,99844.96
2019-03-16T11:12:54.557Z,99850.30
2019-03-16T11:15:25.087Z,99852.00
2019-03-16T11:17:55.542Z,99860.72
2019-03-16T11:20:25.438Z,99866.09
2019-03-16T11:22:55.588Z,99856.48
2019-03-16T11:25:28.166Z,99859.23
2019-03-16T11:27:59.591Z,99873.34
2019-03-16T11:30:35.073Z,99881.64
2019-03-16T11:33:04.946Z,99887.09
2019-03-16T11:35:34.556Z,99884.49
2019-03-16T11:38:05.298Z,99878.59
2019-03-16T11:40:41.953Z,99873.81
2019-03-16T11:43:14.687Z,99881.31
2019-03-16T11:45:46.015Z,99880.08
2019-03-16T11:48:15.804Z,99889.56
2019-03-16T11:50:48.978Z,99891.36
2019-03-16T11:53:18.719Z,99887.25
2019-03-16T11:55:48.372Z,99895.88
2019-03-16T11:59:39.888Z,99895.77
2019-03-16T12:02:09.562Z,99906.15
2019-03-16T12:04:39.178Z,99904.04
2019-03-16T12:07:08.796Z,99910.06
2019-03-16T12:09:38.478Z,99919.91
2019-03-16T12:12:08.334Z,99915.66
2019-03-16T12:14:38.029Z,99924.69
2019-03-16T12:17:07.707Z,99923.03
2019-03-16T12:19:41.133Z,99923.13
2019-03-16T12:22:11.176Z,99930.41
2019-03-16T12:24:41.052Z,99934.69
2019-03-16T12:27:10.761Z,99944.30
2019-03-16T12:29:42.414Z,99949.16
2019-03-16T12:32:12.182Z,99966.11
2019-03-16T12:34:41.936Z,99954.29
2019-03-16T12:37:11.717Z,99932.48
2019-03-16T12:39:41.404Z,99941.11
2019-03-16T12:42:11.035Z,99941.88
2019-03-16T12:44:40.671Z,99950.39
2019-03-16T12:47:10.325Z,99952.38
2019-03-16T12:49:39.947Z,99949.22
2019-03-16T12:52:09.693Z,99949.67
2019-03-16T12:54:39.458Z,99952.12
2019-03-16T12:57:09.075Z,99952.42
2019-03-16T12:59:46.755Z,99951.61
2019-03-16T13:02:10.345Z,99955.39
2019-03-16T13:04:39.950Z,99946.48
2019-03-16T13:07:10.820Z,99961.34
2019-03-16T13:09:42.922Z,99962.52
2019-03-16T13:12:12.818Z,99960.07
2019-03-16T13:14:42.475Z,99953.09
2019-03-16T13:17:12.326Z,99955.01
2019-03-16T13:19:41.946Z,99955.91
2019-03-16T13:22:11.740Z,99962.09
2019-03-16T13:24:41.545Z,99970.55
2019-03-16T13:27:11.920Z,99960.33
2019-03-16T13:29:41.536Z,99959.91
2019-03-16T13:32:11.469Z,99973.95
2019-03-16T13:34:41.323Z,99973.12
2019-03-16T13:37:11.633Z,99964.86
2019-03-16T13:39:41.876Z,99970.35
2019-03-16T13:42:12.362Z,99993.33
2019-03-16T13:44:42.128Z,99982.20
2019-03-16T13:47:11.966Z,99971.70
2019-03-16T13:49:41.672Z,99968.88
2019-03-16T13:52:12.366Z,99973.55
2019-03-16T13:54:42.356Z,99980.81
2019-03-16T13:57:12.500Z,99991.88
2019-03-16T13:59:42.361Z,99999.38
2019-03-16T14:02:12.420Z,99993.81
2019-03-16T14:04:43.696Z,99999.33
2019-03-16T14:07:13.336Z,99985.27
2019-03-16T14:09:43.018Z,99990.04
2019-03-16T14:12:12.885Z,99995.72
2019-03-16T14:14:42.783Z,100002.83
2019-03-16T14:17:13.096Z,99998.00
2019-03-16T14:19:42.763Z,100008.94
2019-03-16T14:22:13.586Z,100015.13
2019-03-16T14:24:43.404Z,100011.23
2019-03-16T14:27:14.218Z,100015.27
2019-03-16T14:29:44.073Z,100024.70
2019-03-16T14:32:14.344Z,100035.20
2019-03-16T14:34:44.556Z,100026.39
2019-03-16T14:37:14.207Z,100013.33
2019-03-16T14:39:44.444Z,100015.68
2019-03-16T14:42:14.349Z,100034.62
2019-03-16T14:44:44.215Z,100024.98
2019-03-16T14:47:14.935Z,100022.27
2019-03-16T14:49:44.651Z,100020.55
2019-03-16T14:52:14.278Z,100013.59
2019-03-16T14:54:43.972Z,100028.98
2019-03-16T14:57:13.610Z,100021.28
2019-03-16T14:59:45.790Z,100024.19
2019-03-16T15:02:15.831Z,100027.21
2019-03-16T15:04:45.465Z,100024.39
2019-03-16T15:07:15.102Z,100023.05
2019-03-16T15:09:44.795Z,100029.17
2019-03-16T15:12:16.056Z,100036.69
2019-03-16T15:14:45.894Z,100046.23
2019-03-16T15:17:15.575Z,100025.96
2019-03-16T15:19:45.573Z,100046.75
2019-03-16T15:22:15.258Z,100050.09
2019-03-16T15:24:45.116Z,100061.03
2019-03-16T15:27:15.986Z,100060.87
2019-03-16T15:29:45.704Z,100061.40
2019-03-16T15:32:15.428Z,100058.41
2019-03-16T15:34:45.505Z,100047.46
2019-03-16T15:37:15.195Z,100045.73
2019-03-16T15:39:45.226Z,100065.52
2019-03-16T15:42:15.435Z,100063.63
2019-03-16T15:44:47.472Z,100056.05
2019-03-16T15:47:19.434Z,100083.72
2019-03-16T15:49:52.374Z,100067.42
2019-03-16T15:52:23.531Z,100076.38
2019-03-16T15:54:53.359Z,100072.25
2019-03-16T15:57:23.351Z,100071.22
2019-03-16T15:59:53.057Z,100068.74
2019-03-16T16:02:22.819Z,100074.63
2019-03-16T16:04:52.532Z,100089.26
2019-03-16T16:07:22.211Z,100080.47
2019-03-16T16:09:52.107Z,100089.59
2019-03-16T16:12:21.781Z,100093.63
2019-03-16T16:14:51.560Z,100086.50
2019-03-16T16:17:21.182Z,100095.35
2019-03-16T16:19:51.149Z,100082.80
2019-03-16T16:22:21.122Z,100079.73
2019-03-16T16:24:52.683Z,100094.52
2019-03-16T16:27:24.092Z,100088.39
2019-03-16T16:29:54.694Z,100079.77
2019-03-16T16:32:24.325Z,100083.72
2019-03-16T16:34:54.113Z,100090.42
2019-03-16T16:37:24.502Z,100086.44
2019-03-16T16:39:54.253Z,100090.38
2019-03-16T16:42:24.023Z,100084.19
2019-03-16T16:44:53.663Z,100084.38
2019-03-16T16:47:23.291Z,100093.45
2019-03-16T16:49:52.921Z,100078.48
2019-03-16T16:52:22.587Z,100081.42
2019-03-16T16:54:52.498Z,100089.07
2019-03-16T16:57:22.791Z,100089.83
2019-03-16T16:59:53.243Z,100097.77
2019-03-16T17:02:23.509Z,100114.41
2019-03-16T17:04:53.981Z,100109.19
2019-03-16T17:07:23.644Z,100103.39
2019-03-16T17:09:53.278Z,100093.90
2019-03-16T17:12:23.183Z,100107.53
2019-03-16T17:14:52.870Z,100119.80
2019-03-16T17:17:34.378Z,100110.45
2019-03-16T17:19:54.671Z,100118.41
2019-03-16T17:22:25.097Z,100124.94
2019-03-16T17:24:55.761Z,100136.49
2019-03-16T17:27:25.515Z,100135.33
2019-03-16T17:29:56.081Z,100130.05
2019-03-16T17:32:26.009Z,100132.69
2019-03-16T17:34:56.599Z,100140.82
2019-03-16T17:37:26.328Z,100143.44
2019-03-16T17:39:56.312Z,100141.86
2019-03-16T17:42:25.956Z,100144.06
2019-03-16T17:44:55.695Z,100140.47
2019-03-16T17:47:25.338Z,100147.48
2019-03-16T17:49:55.002Z,100148.05
2019-03-16T17:52:25.162Z,100144.81
2019-03-16T17:54:55.393Z,100156.25
2019-03-16T17:57:25.394Z,100156.29
2019-03-16T17:59:55.334Z,100155.58
2019-03-16T18:02:24.962Z,100161.45
2019-03-16T18:04:54.600Z,100161.45
2019-03-16T18:07:24.663Z,100148.97
2019-03-16T18:09:54.284Z,100146.88
2019-03-16T18:12:23.965Z,100154.83
2019-03-16T18:14:53.803Z,100160.70
2019-03-16T18:17:23.654Z,100156.53
2019-03-16T18:19:54.260Z,100161.14
2019-03-16T18:22:24.022Z,100160.31
2019-03-16T18:24:53.792Z,100152.36
2019-03-16T18:27:23.373Z,100151.61
2019-03-16T18:29:53.070Z,100151.65
2019-03-16T18:32:22.775Z,100147.08
2019-03-16T18:34:52.738Z,100144.68
2019-03-16T18:37:22.396Z,100145.59
2019-03-16T18:39:52.125Z,100141.45
2019-03-16T18:42:21.787Z,100141.88
2019-03-16T18:44:51.449Z,100141.88
2019-03-16T18:47:21.193Z,100144.02
2019-03-16T18:49:52.868Z,100144.45
2019-03-16T18:52:22.942Z,100149.96
2019-03-16T18:54:52.647Z,100154.11
2019-03-16T18:57:22.284Z,100155.76
2019-03-16T18:59:52.356Z,100158.98
2019-03-16T19:02:21.969Z,100160.95
2019-03-16T19:04:51.598Z,100167.88
2019-03-16T19:07:23.431Z,100163.11
2019-03-16T19:09:55.925Z,100165.52
2019-03-16T19:12:26.143Z,100159.08
2019-03-16T19:14:55.890Z,100161.56
2019-03-16T19:17:27.098Z,100159.83
2019-03-16T19:19:56.793Z,100162.75
2019-03-16T19:22:26.667Z,100158.48
2019-03-16T19:24:56.307Z,100160.88
2019-03-16T19:27:25.986Z,100149.53
2019-03-16T19:29:55.683Z,100146.06
2019-03-16T19:32:33.586Z,100140.26
2019-03-16T19:34:56.753Z,100149.02
2019-03-16T19:37:26.584Z,100147.75
2019-03-16T19:39:56.578Z,100152.75
2019-03-16T19:42:26.237Z,100147.71
2019-03-16T19:44:56.765Z,100150.55
2019-03-16T19:47:26.391Z,100150.86
2019-03-16T19:49:56.181Z,100150.73
2019-03-16T19:52:25.874Z,100155.30
2019-03-16T19:54:58.520Z,100153.09
2019-03-16T19:57:28.145Z,100152.53
2019-03-16T19:59:58.741Z,100145.61
2019-03-16T20:02:28.359Z,100145.84
2019-03-16T20:04:59.119Z,100147.32
2019-03-16T20:07:29.012Z,100152.98
2019-03-16T20:09:58.803Z,100146.94
2019-03-16T20:12:28.808Z,100148.89
2019-03-16T20:14:58.667Z,100149.98
2019-03-16T20:17:28.340Z,100155.30
2019-03-16T20:19:57.951Z,100151.68
2019-03-16T20:22:28.768Z,100146.06
2019-03-16T20:25:00.812Z,100148.89
2019-03-16T20:27:30.541Z,100156.73
2019-03-16T20:30:00.528Z,100155.42
2019-03-16T20:32:30.216Z,100148.59
2019-03-16T20:34:59.920Z,100138.42
2019-03-16T20:37:29.599Z,100145.92
2019-03-16T20:39:59.305Z,100143.78
2019-03-16T20:42:30.555Z,100149.23
2019-03-16T20:45:00.541Z,100148.27
2019-03-16T20:47:31.283Z,100149.97
2019-03-16T20:50:00.998Z,100151.67
2019-03-16T20:52:30.690Z,100150.80
2019-03-16T20:55:00.374Z,100143.66
2019-03-16T20:57:32.663Z,100153.32
2019-03-16T21:00:02.507Z,100142.77
2019-03-16T21:02:32.754Z,100138.59
2019-03-16T21:05:06.304Z,100143.64
2019-03-16T21:07:36.072Z,100139.98
2019-03-16T21:10:11.022Z,100140.03
2019-03-16T21:12:40.932Z,100134.76
2019-03-16T21:15:13.017Z,100136.02
2019-03-16T21:17:44.449Z,100134.10
2019-03-16T21:20:18.327Z,100135.06
2019-03-16T21:22:48.084Z,100130.14
2019-03-16T21:25:17.995Z,100132.33
2019-03-16T21:27:47.701Z,100129.06
2019-03-16T21:30:18.708Z,100130.38
2019-03-16T21:32:48.487Z,100125.80
2019-03-16T21:35:18.128Z,100130.46
2019-03-16T21:37:48.138Z,100127.23
2019-03-16T21:40:18.075Z,100124.41
2019-03-16T21:42:47.850Z,100124.45
2019-03-16T21:45:17.949Z,100120.80
2019-03-16T21:47:59.618Z,100117.89
2019-03-16T21:50:19.827Z,100119.23
2019-03-16T21:52:49.529Z,100124.33
2019-03-16T21:55:19.235Z,100129.00
2019-03-16T21:57:49.522Z,100121.11
2019-03-16T22:00:19.609Z,100126.16
2019-03-16T22:02:49.592Z,100127.51
2019-03-16T22:05:19.213Z,100119.59
2019-03-16T22:07:49.038Z,100120.81
2019-03-16T22:10:19.261Z,100115.31
2019-03-16T22:12:49.130Z,100117.84
2019-03-16T22:15:19.367Z,100104.87
2019-03-16T22:17:49.269Z,100113.36
2019-03-16T22:20:22.329Z,100095.30
2019-03-16T22:22:52.112Z,100096.99
2019-03-16T22:25:22.069Z,100091.45
2019-03-16T22:27:52.259Z,100085.94
2019-03-16T22:30:24.934Z,100087.20
2019-03-16T22:32:54.740Z,100082.97
2019-03-16T22:35:25.860Z,100080.88
2019-03-16T22:37:55.682Z,100080.09
2019-03-16T22:40:25.308Z,100074.66
2019-03-16T22:42:55.321Z,100075.09
2019-03-16T22:45:25.159Z,100066.25
2019-03-16T22:47:54.983Z,100063.77
2019-03-16T22:50:24.706Z,100069.47
2019-03-16T22:52:54.376Z,100070.28
2019-03-16T22:55:25.643Z,100063.14
2019-03-16T22:57:55.273Z,100064.84
2019-03-16T23:00:26.611Z,100068.38
2019-03-16T23:02:56.906Z,100062.20
2019-03-16T23:05:26.540Z,100061.50
2019-03-16T23:07:57.597Z,100056.53
2019-03-16T23:10:27.228Z,100051.78
2019-03-16T23:12:57.017Z,100051.40
2019-03-16T23:15:26.715Z,100043.38
2019-03-16T23:17:57.845Z,100034.50
2019-03-16T23:20:27.488Z,100036.58
2019-03-16T23:22:57.302Z,100030.76
2019-03-16T23:25:26.922Z,100021.61
2019-03-16T23:27:56.705Z,100015.35
2019-03-16T23:30:26.397Z,100014.86
2019-03-16T23:32:56.001Z,100008.55
2019-03-16T23:35:25.631Z,100010.74
2019-03-16T23:37:55.284Z,100000.77
2019-03-16T23:40:24.897Z,100001.43
2019-03-16T23:42:54.915Z,99985.98
2019-03-16T23:45:24.573Z,99976.75
2019-03-16T23:47:54.762Z,99979.28
2019-03-16T23:50:24.369Z,99971.31
2019-03-16T23:52:54.152Z,99968.49
2019-03-16T23:55:24.637Z,99962.62
2019-03-16T23:57:56.327Z,99955.48
